London, Kentucky
Current Conditions -  °F | °C
As of 4:53 AM on Wednesday 22 Oct 2014 (Local Time) from KLOZ Reporting Station
Clear Clear  
Wind Chill: 42°   Ceiling: Unl
Heat Index: 45°   Visibility: 10mi
Dew Point: 37°   Wind: 6mph
Humidity: 74%   Direction: 10°N
Pressure: 30.16"   Gusts: NA
Location:  37.13°N, 84.08°W
Report Text: KLOZ 220853Z AUTO 01005KT 10SM CLR 07/03 A3016 RMK AO2 SLP211 T00720028 53009
Loading
Personal Weather Stations






























Interactive Weather Map
Tropical Storm Tracking
New forecast layout! Learn more

10-Day Weather Forecast

Advertisements
Track Severe Weather on mobile